createdAt,value
2018-05-15T00:02:25.954Z,15.60
2018-05-15T00:04:53.504Z,15.50
2018-05-15T00:07:21.177Z,15.50
2018-05-15T00:09:49.025Z,15.40
2018-05-15T00:12:16.651Z,15.40
2018-05-15T00:14:44.231Z,15.40
2018-05-15T00:17:14.095Z,15.40
2018-05-15T00:19:41.610Z,15.40
2018-05-15T00:22:10.448Z,15.30
2018-05-15T00:24:37.959Z,15.30
2018-05-15T00:27:05.429Z,15.30
2018-05-15T00:29:32.999Z,15.30
2018-05-15T00:32:01.249Z,15.30
2018-05-15T00:34:28.874Z,15.30
2018-05-15T00:36:56.400Z,15.30
2018-05-15T00:39:23.981Z,15.40
2018-05-15T00:41:52.284Z,15.40
2018-05-15T00:44:19.874Z,15.30
2018-05-15T00:46:47.390Z,15.30
2018-05-15T00:49:15.650Z,15.30
2018-05-15T00:51:43.935Z,15.20
2018-05-15T00:54:11.699Z,15.20
2018-05-15T00:56:39.289Z,15.20
2018-05-15T00:59:08.710Z,15.10
2018-05-15T01:01:36.286Z,15.10
2018-05-15T01:04:03.852Z,15.00
2018-05-15T01:06:31.510Z,15.00
2018-05-15T01:08:59.241Z,14.90
2018-05-15T01:11:27.720Z,14.90
2018-05-15T01:13:56.026Z,14.90
2018-05-15T01:16:24.292Z,14.90
2018-05-15T01:18:51.859Z,14.90
2018-05-15T01:21:20.462Z,14.90
2018-05-15T01:23:47.940Z,14.90
2018-05-15T01:26:15.479Z,14.90
2018-05-15T01:28:43.259Z,14.80
2018-05-15T01:31:10.741Z,14.80
2018-05-15T01:33:38.293Z,14.80
2018-05-15T01:36:06.579Z,14.80
2018-05-15T01:38:34.232Z,14.80
2018-05-15T01:41:03.559Z,14.80
2018-05-15T01:43:31.695Z,14.80
2018-05-15T01:45:59.195Z,14.80
2018-05-15T01:48:26.691Z,14.80
2018-05-15T01:50:54.186Z,14.80
2018-05-15T01:53:21.728Z,14.80
2018-05-15T01:55:49.387Z,14.80
2018-05-15T01:58:16.880Z,14.70
2018-05-15T02:00:44.414Z,14.70
2018-05-15T02:03:12.787Z,14.70
2018-05-15T02:05:41.626Z,14.60
2018-05-15T02:08:10.213Z,14.60
2018-05-15T02:10:38.617Z,14.60
2018-05-15T02:13:06.757Z,14.50
2018-05-15T02:15:34.384Z,14.50
2018-05-15T02:18:01.909Z,14.50
2018-05-15T02:20:31.235Z,14.60
2018-05-15T02:22:58.927Z,14.60
2018-05-15T02:25:26.430Z,14.60
2018-05-15T02:27:54.017Z,14.60
2018-05-15T02:30:22.317Z,14.70
2018-05-15T02:32:49.826Z,14.70
2018-05-15T02:35:18.949Z,14.70
2018-05-15T02:37:47.287Z,14.70
2018-05-15T02:42:48.996Z,14.70
2018-05-15T02:45:16.509Z,14.60
2018-05-15T02:47:44.885Z,14.60
2018-05-15T02:50:12.925Z,14.60
2018-05-15T02:52:41.218Z,14.60
2018-05-15T02:55:09.123Z,14.60
2018-05-15T02:57:36.615Z,14.50
2018-05-15T03:00:04.113Z,14.50
2018-05-15T03:02:32.900Z,14.40
2018-05-15T03:05:02.787Z,14.40
2018-05-15T03:07:30.524Z,14.40
2018-05-15T03:09:58.639Z,14.40
2018-05-15T03:12:26.220Z,14.30
2018-05-15T03:14:53.830Z,14.30
2018-05-15T03:17:21.355Z,14.20
2018-05-15T03:19:49.888Z,14.20
2018-05-15T03:22:17.614Z,14.20
2018-05-15T03:24:46.074Z,14.20
2018-05-15T03:27:14.066Z,14.20
2018-05-15T03:29:41.557Z,14.20
2018-05-15T03:32:09.045Z,14.20
2018-05-15T03:34:36.567Z,14.30
2018-05-15T03:37:06.331Z,14.30
2018-05-15T03:39:34.358Z,14.20
2018-05-15T03:42:02.630Z,14.30
2018-05-15T03:44:30.966Z,14.20
2018-05-15T03:47:00.388Z,14.20
2018-05-15T03:49:29.830Z,14.30
2018-05-15T03:51:58.126Z,14.30
2018-05-15T03:54:26.388Z,14.30
2018-05-15T03:56:54.650Z,14.40
2018-05-15T03:59:23.006Z,14.40
2018-05-15T04:02:02.379Z,14.40
2018-05-15T04:04:41.750Z,14.40
2018-05-15T04:07:21.551Z,14.40
2018-05-15T04:09:50.798Z,14.50
2018-05-15T04:12:18.416Z,14.50
2018-05-15T04:14:46.939Z,14.50
2018-05-15T04:17:14.447Z,14.60
2018-05-15T04:19:42.582Z,14.60
2018-05-15T04:22:10.091Z,14.60
2018-05-15T04:24:37.591Z,14.70
2018-05-15T04:27:05.940Z,14.80
2018-05-15T04:29:33.403Z,14.80
2018-05-15T04:32:00.894Z,14.80
2018-05-15T04:34:29.150Z,14.90
2018-05-15T04:36:56.650Z,14.90
2018-05-15T04:39:24.984Z,15.10
2018-05-15T04:41:52.471Z,15.10
2018-05-15T04:44:20.716Z,15.40
2018-05-15T04:46:48.299Z,15.40
2018-05-15T04:49:15.979Z,16.00
2018-05-15T04:51:43.468Z,16.90
2018-05-15T04:54:11.771Z,18.60
2018-05-15T04:56:39.311Z,18.60
2018-05-15T04:59:08.392Z,20.00
2018-05-15T05:01:35.888Z,20.00
2018-05-15T05:04:03.391Z,20.60
2018-05-15T05:06:30.984Z,20.90
2018-05-15T05:08:59.582Z,21.40
2018-05-15T05:11:27.861Z,21.40
2018-05-15T05:13:56.859Z,21.90
2018-05-15T05:16:25.166Z,22.20
2018-05-15T05:18:53.350Z,22.10
2018-05-15T05:21:20.873Z,22.40
2018-05-15T05:23:48.869Z,22.70
2018-05-15T05:26:17.124Z,22.80
2018-05-15T05:28:44.611Z,22.80
2018-05-15T05:31:12.872Z,23.00
2018-05-15T05:33:41.003Z,23.00
2018-05-15T05:36:08.507Z,23.10
2018-05-15T05:38:36.007Z,23.20
2018-05-15T05:41:03.559Z,23.20
2018-05-15T05:43:32.125Z,23.20
2018-05-15T05:45:59.636Z,23.20
2018-05-15T05:48:27.167Z,23.20
2018-05-15T05:50:55.445Z,22.70
2018-05-15T05:53:23.787Z,22.70
2018-05-15T05:55:51.397Z,22.70
2018-05-15T05:58:19.898Z,23.10
2018-05-15T06:00:47.965Z,23.10
2018-05-15T06:03:16.266Z,23.70
2018-05-15T06:05:43.756Z,23.70
2018-05-15T06:08:11.273Z,23.90
2018-05-15T06:10:40.381Z,23.90
2018-05-15T06:13:07.918Z,23.90
2018-05-15T06:15:36.161Z,24.10
2018-05-15T06:18:03.685Z,24.10
2018-05-15T06:20:32.570Z,24.10
2018-05-15T06:23:01.357Z,24.10
2018-05-15T06:25:29.751Z,24.10
2018-05-15T06:27:58.043Z,24.00
2018-05-15T06:30:26.007Z,24.00
2018-05-15T06:32:54.302Z,23.70
2018-05-15T06:35:21.857Z,23.70
2018-05-15T06:37:50.269Z,23.70
2018-05-15T06:40:17.761Z,23.70
2018-05-15T06:42:45.257Z,23.60
2018-05-15T06:45:13.532Z,23.40
2018-05-15T06:47:42.965Z,23.20
2018-05-15T06:50:10.453Z,23.20
2018-05-15T06:52:39.095Z,23.10
2018-05-15T06:55:07.369Z,23.20
2018-05-15T06:57:35.618Z,23.20
2018-05-15T07:00:03.127Z,23.20
2018-05-15T07:02:31.423Z,23.00
2018-05-15T07:05:00.782Z,22.90
2018-05-15T07:07:28.916Z,22.90
2018-05-15T07:09:56.419Z,22.80
2018-05-15T07:12:24.743Z,22.60
2018-05-15T07:14:52.274Z,22.60
2018-05-15T07:17:19.840Z,22.60
2018-05-15T07:19:47.387Z,22.70
2018-05-15T07:22:16.310Z,23.00
2018-05-15T07:24:44.590Z,23.20
2018-05-15T07:27:12.864Z,23.20
2018-05-15T07:29:40.435Z,23.20
2018-05-15T07:32:07.929Z,23.30
2018-05-15T07:34:36.264Z,23.20
2018-05-15T07:37:03.976Z,23.20
2018-05-15T07:39:31.637Z,23.00
2018-05-15T07:41:59.350Z,22.80
2018-05-15T07:44:26.908Z,22.70
2018-05-15T07:46:54.392Z,22.80
2018-05-15T07:49:21.999Z,22.90
2018-05-15T07:51:50.239Z,23.00
2018-05-15T07:54:18.798Z,23.10
2018-05-15T07:56:47.265Z,23.20
2018-05-15T07:59:15.638Z,23.10
2018-05-15T08:01:44.187Z,23.10
2018-05-15T08:04:11.864Z,22.90
2018-05-15T08:06:40.117Z,22.90
2018-05-15T08:09:07.720Z,22.90
2018-05-15T08:11:36.560Z,23.00
2018-05-15T08:14:04.061Z,23.00
2018-05-15T08:16:32.317Z,22.80
2018-05-15T08:19:00.217Z,22.80
2018-05-15T08:21:27.824Z,22.70
2018-05-15T08:23:55.343Z,22.60
2018-05-15T08:26:23.787Z,22.50
2018-05-15T08:28:51.246Z,22.50
2018-05-15T08:31:19.298Z,22.50
2018-05-15T08:33:47.855Z,22.50
2018-05-15T08:36:15.367Z,22.40
2018-05-15T08:38:42.955Z,22.50
2018-05-15T08:41:11.206Z,22.50
2018-05-15T08:43:38.702Z,22.50
2018-05-15T08:46:06.200Z,22.50
2018-05-15T08:48:34.598Z,22.20
2018-05-15T08:51:02.637Z,22.20
2018-05-15T08:53:30.159Z,22.10
2018-05-15T08:55:57.749Z,22.30
2018-05-15T08:58:26.199Z,22.40
2018-05-15T09:00:53.726Z,22.50
2018-05-15T09:03:22.006Z,22.80
2018-05-15T09:05:50.249Z,22.90
2018-05-15T09:08:17.900Z,22.90
2018-05-15T09:10:46.672Z,23.00
2018-05-15T09:13:14.721Z,23.00
2018-05-15T09:15:43.036Z,23.30
2018-05-15T09:18:10.561Z,23.30
2018-05-15T09:20:40.025Z,23.60
2018-05-15T09:23:08.589Z,23.90
2018-05-15T09:25:36.798Z,23.90
2018-05-15T09:28:04.433Z,23.60
2018-05-15T09:30:31.927Z,23.50
2018-05-15T09:32:59.589Z,23.40
2018-05-15T09:35:27.069Z,23.40
2018-05-15T09:37:54.553Z,23.50
2018-05-15T09:40:24.263Z,24.10
2018-05-15T09:42:51.741Z,24.00
2018-05-15T09:45:19.299Z,24.30
2018-05-15T09:47:47.551Z,24.40
2018-05-15T09:50:15.153Z,24.30
2018-05-15T09:52:42.641Z,24.30
2018-05-15T09:55:11.131Z,24.20
2018-05-15T09:57:38.725Z,24.10
2018-05-15T10:00:06.313Z,24.10
2018-05-15T10:02:34.264Z,24.00
2018-05-15T10:05:02.534Z,24.00
2018-05-15T10:07:31.201Z,23.70
2018-05-15T10:09:58.741Z,23.60
2018-05-15T10:12:26.983Z,24.10
2018-05-15T10:14:54.815Z,24.00
2018-05-15T10:17:22.315Z,24.30
2018-05-15T10:19:49.924Z,24.40
2018-05-15T10:22:17.785Z,24.40
2018-05-15T10:24:46.052Z,24.40
2018-05-15T10:27:13.566Z,24.40
2018-05-15T10:29:41.100Z,24.40
2018-05-15T10:32:09.482Z,24.70
2018-05-15T10:34:37.861Z,24.80
2018-05-15T10:37:06.113Z,24.80
2018-05-15T10:39:33.630Z,24.80
2018-05-15T10:42:01.123Z,24.80
2018-05-15T10:44:28.615Z,24.90
2018-05-15T10:46:57.006Z,24.90
2018-05-15T10:49:25.264Z,25.00
2018-05-15T10:51:52.757Z,24.90
2018-05-15T10:54:21.016Z,24.40
2018-05-15T10:56:50.199Z,24.20
2018-05-15T10:59:17.820Z,24.20
2018-05-15T11:01:46.679Z,24.40
2018-05-15T11:04:14.957Z,24.70
2018-05-15T11:06:42.969Z,24.60
2018-05-15T11:09:11.287Z,24.80
2018-05-15T11:11:38.877Z,24.80
2018-05-15T11:14:06.459Z,24.70
2018-05-15T11:16:35.090Z,24.70
2018-05-15T11:19:15.605Z,24.80
2018-05-15T11:21:55.185Z,24.80
2018-05-15T11:24:34.914Z,25.20
2018-05-15T11:27:02.415Z,25.40
2018-05-15T11:29:30.285Z,25.40
2018-05-15T11:31:57.797Z,25.20
2018-05-15T11:34:26.054Z,25.00
2018-05-15T11:36:53.843Z,25.00
2018-05-15T11:39:22.141Z,25.40
2018-05-15T11:41:50.857Z,25.60
2018-05-15T11:44:18.385Z,25.50
2018-05-15T11:46:46.645Z,26.10
2018-05-15T11:49:14.638Z,26.10
2018-05-15T11:51:42.540Z,26.10
2018-05-15T11:54:10.036Z,25.30
2018-05-15T11:56:37.549Z,25.30
2018-05-15T11:59:05.322Z,25.00
2018-05-15T12:01:32.859Z,25.20
2018-05-15T12:04:01.213Z,25.70
2018-05-15T12:06:30.236Z,25.80
2018-05-15T12:08:58.012Z,25.80
2018-05-15T12:11:26.762Z,25.50
2018-05-15T12:13:54.254Z,25.40
2018-05-15T12:16:22.565Z,25.00
2018-05-15T12:18:50.834Z,25.00
2018-05-15T12:21:18.498Z,25.00
2018-05-15T12:23:46.782Z,25.20
2018-05-15T12:26:15.172Z,25.20
2018-05-15T12:28:43.926Z,25.30
2018-05-15T12:31:11.534Z,25.30
2018-05-15T12:33:39.788Z,25.00
2018-05-15T12:36:07.293Z,25.00
2018-05-15T12:38:34.777Z,24.70
2018-05-15T12:41:02.295Z,24.60
2018-05-15T12:43:31.109Z,24.30
2018-05-15T12:45:58.637Z,24.30
2018-05-15T12:48:26.955Z,24.70
2018-05-15T12:50:54.502Z,24.60
2018-05-15T12:53:22.772Z,24.70
2018-05-15T12:55:50.401Z,24.70
2018-05-15T12:58:18.126Z,24.50
2018-05-15T13:00:45.891Z,24.40
2018-05-15T13:03:14.147Z,24.40
2018-05-15T13:05:42.444Z,24.60
2018-05-15T13:08:10.720Z,24.70
2018-05-15T13:10:38.983Z,24.70
2018-05-15T13:13:07.290Z,24.80
2018-05-15T13:15:35.591Z,24.80
2018-05-15T13:18:03.090Z,24.80
2018-05-15T13:20:30.748Z,24.80
2018-05-15T13:22:58.263Z,24.90
2018-05-15T13:25:26.543Z,24.60
2018-05-15T13:27:54.801Z,24.40
2018-05-15T13:30:22.357Z,24.50
2018-05-15T13:32:50.655Z,24.50
2018-05-15T13:35:19.813Z,24.50
2018-05-15T13:37:48.006Z,24.50
2018-05-15T13:40:15.915Z,24.50
2018-05-15T13:42:46.070Z,24.40
2018-05-15T13:45:14.630Z,24.20
2018-05-15T13:47:43.405Z,24.00
2018-05-15T13:50:10.901Z,24.00
2018-05-15T13:52:38.405Z,24.00
2018-05-15T13:55:06.041Z,23.90
2018-05-15T13:57:34.601Z,23.90
2018-05-15T14:00:03.270Z,23.90
2018-05-15T14:02:30.877Z,23.90
2018-05-15T14:04:58.507Z,23.80
2018-05-15T14:07:26.791Z,23.40
2018-05-15T14:09:55.043Z,23.30
2018-05-15T14:12:22.650Z,23.30
2018-05-15T14:14:50.945Z,22.80
2018-05-15T14:17:19.699Z,22.80
2018-05-15T14:19:47.306Z,22.50
2018-05-15T14:22:14.811Z,22.30
2018-05-15T14:24:42.346Z,22.00
2018-05-15T14:27:10.171Z,21.80
2018-05-15T14:29:38.384Z,21.40
2018-05-15T14:32:05.934Z,21.20
2018-05-15T14:34:34.213Z,20.50
2018-05-15T14:37:02.509Z,20.20
2018-05-15T14:39:29.991Z,20.20
2018-05-15T14:42:09.583Z,20.00
2018-05-15T14:44:38.193Z,19.40
2018-05-15T14:47:05.905Z,19.40
2018-05-15T14:49:33.634Z,18.50
2018-05-15T14:52:01.143Z,17.20
2018-05-15T14:54:28.645Z,16.00
2018-05-15T14:56:56.907Z,14.80
2018-05-15T14:59:24.411Z,14.80
2018-05-15T15:01:52.055Z,14.50
2018-05-15T15:04:19.601Z,14.30
2018-05-15T15:06:47.897Z,14.20
2018-05-15T15:09:16.153Z,14.20
2018-05-15T15:11:43.767Z,14.20
2018-05-15T15:14:11.318Z,14.30
2018-05-15T15:16:39.283Z,14.20
2018-05-15T15:19:07.772Z,14.20
2018-05-15T15:21:36.091Z,14.10
2018-05-15T15:24:03.711Z,14.20
2018-05-15T15:26:31.390Z,14.20
2018-05-15T15:28:58.951Z,14.20
2018-05-15T15:31:26.441Z,14.20
2018-05-15T15:33:54.172Z,14.20
2018-05-15T15:36:22.445Z,14.10
2018-05-15T15:38:49.959Z,14.10
2018-05-15T15:41:18.264Z,14.10
2018-05-15T15:43:46.000Z,14.00
2018-05-15T15:46:14.293Z,14.10
2018-05-15T15:48:41.804Z,14.10
2018-05-15T15:51:09.767Z,14.10
2018-05-15T15:53:37.275Z,14.20
2018-05-15T15:56:05.019Z,14.30
2018-05-15T15:58:33.366Z,14.40
2018-05-15T16:01:00.874Z,14.40
2018-05-15T16:03:29.353Z,14.70
2018-05-15T16:05:57.053Z,14.70
2018-05-15T16:08:24.824Z,14.70
2018-05-15T16:10:52.313Z,14.70
2018-05-15T16:13:19.819Z,14.80
2018-05-15T16:15:48.187Z,15.10
2018-05-15T16:18:16.919Z,15.30
2018-05-15T16:20:44.425Z,15.30
2018-05-15T16:23:11.943Z,15.50
2018-05-15T16:25:39.483Z,15.60
2018-05-15T16:28:07.920Z,15.80
2018-05-15T16:30:35.427Z,15.80
2018-05-15T16:33:03.717Z,15.90
2018-05-15T16:35:33.646Z,16.00
2018-05-15T16:38:01.516Z,16.00
2018-05-15T16:40:29.094Z,16.10
2018-05-15T16:42:57.220Z,16.10
2018-05-15T16:45:24.777Z,16.10
2018-05-15T16:47:52.591Z,16.10
2018-05-15T16:50:20.157Z,16.10
2018-05-15T16:52:47.731Z,16.00
2018-05-15T16:55:15.393Z,16.00
2018-05-15T16:57:42.884Z,16.00
2018-05-15T17:00:10.521Z,15.90
2018-05-15T17:02:38.863Z,15.30
2018-05-15T17:05:06.393Z,15.30
2018-05-15T17:07:34.538Z,14.90
2018-05-15T17:10:02.081Z,14.70
2018-05-15T17:12:31.073Z,14.40
2018-05-15T17:14:58.848Z,14.40
2018-05-15T17:17:26.602Z,14.30
2018-05-15T17:19:54.272Z,14.20
2018-05-15T17:22:21.814Z,14.20
2018-05-15T17:24:50.371Z,14.30
2018-05-15T17:27:18.777Z,14.30
2018-05-15T17:29:46.270Z,14.40
2018-05-15T17:32:14.562Z,14.40
2018-05-15T17:34:42.844Z,14.40
2018-05-15T17:37:11.152Z,14.40
2018-05-15T17:39:40.386Z,14.40
2018-05-15T17:42:07.902Z,14.50
2018-05-15T17:44:36.144Z,14.50
2018-05-15T17:47:04.109Z,14.50
2018-05-15T17:49:33.188Z,14.60
2018-05-15T17:52:00.770Z,14.60
2018-05-15T17:54:28.326Z,14.60
2018-05-15T17:56:56.316Z,14.60
2018-05-15T17:59:23.998Z,14.70
2018-05-15T18:01:52.388Z,14.70
2018-05-15T18:04:19.885Z,14.70
2018-05-15T18:06:47.469Z,14.70
2018-05-15T18:09:15.216Z,14.70
2018-05-15T18:11:42.723Z,14.70
2018-05-15T18:14:10.227Z,14.60
2018-05-15T18:16:39.120Z,14.40
2018-05-15T18:19:07.393Z,14.40
2018-05-15T18:21:35.669Z,14.40
2018-05-15T18:24:04.664Z,14.40
2018-05-15T18:26:32.950Z,14.40
2018-05-15T18:29:01.378Z,14.40
2018-05-15T18:31:28.988Z,14.30
2018-05-15T18:33:57.927Z,14.30
2018-05-15T18:36:25.627Z,14.30
2018-05-15T18:38:54.495Z,14.30
2018-05-15T18:41:21.995Z,14.20
2018-05-15T18:43:49.606Z,14.20
2018-05-15T18:46:18.242Z,14.10
2018-05-15T18:51:22.553Z,14.10
2018-05-15T18:53:50.785Z,14.10
2018-05-15T18:56:18.367Z,14.00
2018-05-15T18:58:46.649Z,14.00
2018-05-15T19:01:15.833Z,14.00
2018-05-15T19:03:44.097Z,14.00
2018-05-15T19:06:11.703Z,14.00
2018-05-15T19:08:40.098Z,13.80
2018-05-15T19:11:09.953Z,13.80
2018-05-15T19:13:37.481Z,13.80
2018-05-15T19:16:04.987Z,13.80
2018-05-15T19:18:32.552Z,13.80
2018-05-15T19:21:00.871Z,13.80
2018-05-15T19:23:29.132Z,13.70
2018-05-15T19:25:57.422Z,13.70
2018-05-15T19:28:25.710Z,13.70
2018-05-15T19:30:53.978Z,13.70
2018-05-15T19:33:28.051Z,13.70
2018-05-15T19:36:02.453Z,13.70
2018-05-15T19:38:30.505Z,13.70
2018-05-15T19:41:01.316Z,13.60
2018-05-15T19:43:28.798Z,13.50
2018-05-15T19:45:57.139Z,13.50
2018-05-15T19:48:24.640Z,13.50
2018-05-15T19:50:52.916Z,13.50
2018-05-15T19:53:23.589Z,13.50
2018-05-15T19:55:51.146Z,13.50
2018-05-15T19:58:19.820Z,13.50
2018-05-15T20:00:49.288Z,13.50
2018-05-15T20:03:17.015Z,13.40
2018-05-15T20:05:44.576Z,13.50
2018-05-15T20:08:12.955Z,13.50
2018-05-15T20:10:40.764Z,13.50
2018-05-15T20:13:08.400Z,13.40
2018-05-15T20:15:35.884Z,13.50
2018-05-15T20:18:03.873Z,13.40
2018-05-15T20:20:31.508Z,13.40
2018-05-15T20:23:00.147Z,13.40
2018-05-15T20:25:28.039Z,13.30
2018-05-15T20:27:56.372Z,13.30
2018-05-15T20:30:24.047Z,13.30
2018-05-15T20:32:51.566Z,13.30
2018-05-15T20:35:19.219Z,13.30
2018-05-15T20:37:47.593Z,13.20
2018-05-15T20:40:16.812Z,13.30
2018-05-15T20:42:45.311Z,13.30
2018-05-15T20:45:12.975Z,13.20
2018-05-15T20:47:40.466Z,13.30
2018-05-15T20:50:08.881Z,13.30
2018-05-15T20:52:36.676Z,13.30
2018-05-15T20:55:05.152Z,13.30
2018-05-15T20:57:33.447Z,13.30
2018-05-15T21:00:02.160Z,13.30
2018-05-15T21:02:29.671Z,13.30
2018-05-15T21:04:57.256Z,13.30
2018-05-15T21:07:24.817Z,13.20
2018-05-15T21:09:54.831Z,13.20
2018-05-15T21:12:23.359Z,13.20
2018-05-15T21:14:52.000Z,13.20
2018-05-15T21:17:20.652Z,13.20
2018-05-15T21:19:48.160Z,13.20
2018-05-15T21:22:16.441Z,13.30
2018-05-15T21:24:44.150Z,13.30
2018-05-15T21:27:11.706Z,13.30
2018-05-15T21:29:39.187Z,13.30
2018-05-15T21:32:06.707Z,13.30
2018-05-15T21:34:35.901Z,13.20
2018-05-15T21:37:04.068Z,13.20
2018-05-15T21:39:31.754Z,13.20
2018-05-15T21:42:00.040Z,13.20
2018-05-15T21:44:28.323Z,13.20
2018-05-15T21:46:55.903Z,13.20
2018-05-15T21:49:23.380Z,13.20
2018-05-15T21:51:50.931Z,13.20
2018-05-15T21:54:19.183Z,13.20
2018-05-15T21:56:47.452Z,13.20
2018-05-15T21:59:15.004Z,13.20
2018-05-15T22:01:42.628Z,13.30
2018-05-15T22:04:10.177Z,13.30
2018-05-15T22:06:37.737Z,13.30
2018-05-15T22:09:05.290Z,13.30
2018-05-15T22:11:45.570Z,13.20
2018-05-15T22:14:24.917Z,13.20
2018-05-15T22:17:04.395Z,13.20
2018-05-15T22:19:43.670Z,13.20
2018-05-15T22:22:14.762Z,13.10
2018-05-15T22:24:42.305Z,13.10
2018-05-15T22:27:10.875Z,13.10
2018-05-15T22:29:38.485Z,13.10
2018-05-15T22:32:05.983Z,13.10
2018-05-15T22:34:34.088Z,13.10
2018-05-15T22:37:01.640Z,13.10
2018-05-15T22:39:29.124Z,13.10
2018-05-15T22:41:56.626Z,13.00
2018-05-15T22:44:24.287Z,13.00
2018-05-15T22:46:52.626Z,13.00
2018-05-15T22:49:20.837Z,13.00
2018-05-15T22:51:49.557Z,13.00
2018-05-15T22:54:17.757Z,13.00
2018-05-15T22:56:45.479Z,13.00
2018-05-15T22:59:12.984Z,12.90
2018-05-15T23:01:40.554Z,12.90
2018-05-15T23:04:08.207Z,12.90
2018-05-15T23:06:37.313Z,12.90
2018-05-15T23:09:04.820Z,12.80
2018-05-15T23:11:32.990Z,12.80
2018-05-15T23:14:00.491Z,12.80
2018-05-15T23:16:28.199Z,12.90
2018-05-15T23:18:56.488Z,12.90
2018-05-15T23:21:23.990Z,12.90
2018-05-15T23:23:51.586Z,12.90
2018-05-15T23:26:19.863Z,13.00
2018-05-15T23:28:48.114Z,13.00
2018-05-15T23:31:15.619Z,13.00
2018-05-15T23:33:44.298Z,13.10
2018-05-15T23:36:12.559Z,13.10
2018-05-15T23:38:41.063Z,13.50
2018-05-15T23:41:13.640Z,13.10
2018-05-15T23:43:42.001Z,13.10
2018-05-15T23:46:09.509Z,13.10
2018-05-15T23:48:37.781Z,13.20
2018-05-15T23:51:07.488Z,13.20
2018-05-15T23:53:36.560Z,13.20
2018-05-15T23:56:04.370Z,13.10
2018-05-15T23:58:33.539Z,13.20
